createdAt,value
2019-06-08T00:00:01.717Z,53
2019-06-08T00:05:00.703Z,52.5
2019-06-08T00:10:01.856Z,53
2019-06-08T00:15:01.195Z,51.9
2019-06-08T00:20:02.496Z,50.8
2019-06-08T00:25:00.907Z,53
2019-06-08T00:30:02.654Z,51.9
2019-06-08T00:35:01.336Z,52.5
2019-06-08T00:40:00.535Z,53
2019-06-08T00:45:01.689Z,51.9
2019-06-08T00:50:01.064Z,52.5
2019-06-08T00:55:02.117Z,53
2019-06-08T01:00:09.673Z,51.9
2019-06-08T01:05:02.363Z,52.5
2019-06-08T01:10:01.197Z,52.5
2019-06-08T01:15:02.822Z,50.8
2019-06-08T01:20:01.284Z,51.9
2019-06-08T01:25:00.550Z,51.9
2019-06-08T01:30:01.187Z,50.8
2019-06-08T01:35:02.518Z,49.2
2019-06-08T01:40:01.295Z,49.8
2019-06-08T01:45:02.967Z,48.7
2019-06-08T01:50:01.097Z,49.8
2019-06-08T01:55:02.224Z,49.8
2019-06-08T02:00:28.582Z,49.8
2019-06-08T02:05:02.510Z,47.6
2019-06-08T02:10:01.414Z,48.7
2019-06-08T02:15:00.768Z,48.7
2019-06-08T02:20:01.440Z,48.7
2019-06-08T02:25:00.635Z,48.7
2019-06-08T02:30:01.782Z,48.7
2019-06-08T02:35:00.686Z,48.7
2019-06-08T02:40:01.531Z,47.6
2019-06-08T02:45:00.886Z,49.2
2019-06-08T02:50:01.906Z,48.7
2019-06-08T02:55:01.114Z,48.7
2019-06-08T03:00:02.444Z,46.5
2019-06-08T03:05:01.216Z,48.7
2019-06-08T03:10:00.512Z,48.7
2019-06-08T03:15:01.433Z,47.6
2019-06-08T03:20:00.748Z,48.7
2019-06-08T03:25:01.847Z,49.2
2019-06-08T03:30:14.932Z,48.7
2019-06-08T03:35:02.432Z,47.6
2019-06-08T03:40:01.237Z,48.7
2019-06-08T03:45:02.540Z,46.5
2019-06-08T03:50:01.259Z,47.6
2019-06-08T03:55:00.567Z,48.2
2019-06-08T04:00:01.424Z,48.7
2019-06-08T04:05:00.738Z,48.2
2019-06-08T04:10:01.615Z,48.7
2019-06-08T04:15:00.916Z,48.7
2019-06-08T04:20:10.013Z,48.7
2019-06-08T04:25:01.012Z,48.7
2019-06-08T04:30:02.322Z,48.7
2019-06-08T04:35:01.357Z,48.2
2019-06-08T04:40:02.480Z,47.6
2019-06-08T04:45:01.245Z,48.7
2019-06-08T04:50:20.733Z,47.1
2019-06-08T04:55:01.260Z,48.7
2019-06-08T05:00:11.447Z,47.1
2019-06-08T05:05:01.087Z,48.2
2019-06-08T05:10:02.519Z,48.2
2019-06-08T05:15:01.249Z,48.7
2019-06-08T05:20:02.524Z,49.8
2019-06-08T05:25:00.970Z,48.7
2019-06-08T05:30:08.267Z,47.1
2019-06-08T05:35:00.970Z,48.7
2019-06-08T05:40:02.102Z,49.8
2019-06-08T05:45:01.093Z,48.2
2019-06-08T05:50:02.432Z,47.1
2019-06-08T05:55:01.166Z,48.7
2019-06-08T06:00:08.711Z,47.6
2019-06-08T06:05:00.980Z,47.6
2019-06-08T06:10:02.066Z,48.7
2019-06-08T06:15:01.078Z,47.6
2019-06-08T06:20:02.383Z,48.7
2019-06-08T06:25:01.303Z,48.7
2019-06-08T06:30:00.760Z,48.7
2019-06-08T06:35:02.030Z,48.7
2019-06-08T06:40:01.056Z,48.7
2019-06-08T06:45:02.193Z,48.7
2019-06-08T06:50:00.943Z,48.7
2019-06-08T06:55:02.011Z,49.2
2019-06-08T07:00:01.071Z,49.8
2019-06-08T07:05:02.857Z,47.6
2019-06-08T07:10:01.287Z,49.8
2019-06-08T07:15:00.576Z,49.2
2019-06-08T07:20:01.409Z,48.7
2019-06-08T07:25:00.627Z,49.2
2019-06-08T07:30:01.787Z,48.7
2019-06-08T07:35:01.102Z,49.8
2019-06-08T07:40:02.385Z,47.6
2019-06-08T07:45:01.368Z,49.8
2019-06-08T07:50:03.857Z,49.8
2019-06-08T07:55:02.009Z,49.8
2019-06-08T08:00:08.784Z,50.3
2019-06-08T08:05:02.428Z,48.2
2019-06-08T08:10:01.329Z,49.8
2019-06-08T08:15:00.615Z,49.2
2019-06-08T08:20:01.885Z,49.8
2019-06-08T08:25:04.281Z,49.2
2019-06-08T08:30:02.301Z,49.8
2019-06-08T08:35:02.921Z,48.7
2019-06-08T08:40:02.509Z,47.6
2019-06-08T08:45:04.685Z,49.2
2019-06-08T08:50:02.126Z,48.2
2019-06-08T08:55:02.282Z,49.2
2019-06-08T09:00:04.740Z,49.2
2019-06-08T09:05:03.631Z,47.1
2019-06-08T09:10:03.467Z,49.2
2019-06-08T09:15:03.878Z,47.1
2019-06-08T09:20:03.600Z,49.8
2019-06-08T09:25:04.270Z,47.1
2019-06-08T09:30:03.307Z,49.2
2019-06-08T09:35:04.384Z,48.7
2019-06-08T09:40:02.188Z,48.7
2019-06-08T09:45:04.080Z,49.2
2019-06-08T09:50:03.329Z,49.8
2019-06-08T09:55:04.821Z,48.7
2019-06-08T10:00:05.220Z,49.8
2019-06-08T10:05:03.981Z,49.8
2019-06-08T10:10:03.012Z,49.8
2019-06-08T10:15:00.820Z,49.8
2019-06-08T10:20:03.197Z,49.8
2019-06-08T10:25:04.397Z,50.8
2019-06-08T10:30:03.951Z,50.3
2019-06-08T10:35:02.620Z,49.8
2019-06-08T10:40:02.364Z,49.8
2019-06-08T10:45:05.065Z,49.8
2019-06-08T10:50:05.339Z,50.3
2019-06-08T10:55:04.634Z,50.3
2019-06-08T11:00:02.978Z,49.8
2019-06-08T11:05:05.773Z,49.8
2019-06-08T11:10:01.980Z,49.8
2019-06-08T11:15:03.494Z,48.7
2019-06-08T11:20:02.925Z,50.8
2019-06-08T11:25:03.758Z,50.8
2019-06-08T11:30:05.800Z,50.8
2019-06-08T11:35:03.913Z,49.2
2019-06-08T11:40:02.126Z,51.4
2019-06-08T11:45:02.343Z,50.8
2019-06-08T11:50:02.817Z,50.8
2019-06-08T11:55:02.493Z,50.8
2019-06-08T12:00:09.069Z,50.8
2019-06-08T12:05:01.733Z,49.8
2019-06-08T12:10:02.972Z,51.4
2019-06-08T12:15:01.163Z,50.8
2019-06-08T12:20:00.619Z,51.9
2019-06-08T12:25:01.181Z,51.4
2019-06-08T12:30:08.591Z,51.4
2019-06-08T12:35:01.099Z,51.4
2019-06-08T12:40:02.466Z,51.4
2019-06-08T12:45:00.836Z,51.9
2019-06-08T12:50:01.930Z,52.5
2019-06-08T12:55:06.548Z,51.9
2019-06-08T13:00:02.317Z,53
2019-06-08T13:05:01.360Z,53
2019-06-08T13:10:00.674Z,53
2019-06-08T13:15:01.198Z,52.5
2019-06-08T13:20:02.491Z,52.5
2019-06-08T13:25:15.439Z,52.5
2019-06-08T13:30:00.691Z,53
2019-06-08T13:35:01.281Z,54.1
2019-06-08T13:40:00.509Z,55.1
2019-06-08T13:45:01.280Z,55.7
2019-06-08T13:50:02.538Z,54.1
2019-06-08T13:55:01.574Z,57.3
2019-06-08T14:00:00.888Z,57.3
2019-06-08T14:05:01.753Z,58.9
2019-06-08T14:10:01.011Z,59.5
2019-06-08T14:15:02.251Z,60.5
2019-06-08T14:20:01.086Z,60
2019-06-08T14:25:02.504Z,59.5
2019-06-08T14:30:01.394Z,61.6
2019-06-08T14:35:02.784Z,61.6
2019-06-08T14:40:01.311Z,62.7
2019-06-08T14:45:02.558Z,60.5
2019-06-08T14:50:02.064Z,62.7
2019-06-08T14:55:00.619Z,62.7
2019-06-08T15:00:08.307Z,62.1
2019-06-08T15:05:00.571Z,61.6
2019-06-08T15:10:01.447Z,60.5
2019-06-08T15:15:00.819Z,60.5
2019-06-08T15:20:01.880Z,60
2019-06-08T15:25:00.898Z,60.5
2019-06-08T15:30:02.017Z,58.9
2019-06-08T15:35:00.990Z,58.4
2019-06-08T15:40:02.256Z,60
2019-06-08T15:45:01.035Z,59.5
2019-06-08T15:50:02.543Z,57.3
2019-06-08T15:55:01.629Z,58.9
2019-06-08T16:00:00.543Z,60.5
2019-06-08T16:05:01.525Z,60.5
2019-06-08T16:10:00.779Z,61.6
2019-06-08T16:15:02.089Z,61.1
2019-06-08T16:20:00.931Z,60.5
2019-06-08T16:25:02.182Z,61.6
2019-06-08T16:30:08.627Z,59.5
2019-06-08T16:35:00.525Z,60
2019-06-08T16:40:01.611Z,57.3
2019-06-08T16:45:00.833Z,56.8
2019-06-08T16:50:02.029Z,56.2
2019-06-08T16:55:01.112Z,60
2019-06-08T17:00:29.758Z,53
2019-06-08T17:05:00.920Z,54.1
2019-06-08T17:10:01.760Z,54.1
2019-06-08T17:15:01.005Z,53.5
2019-06-08T17:20:04.533Z,51.9
2019-06-08T17:25:01.290Z,53
2019-06-08T17:30:08.209Z,53
2019-06-08T17:35:01.241Z,53
2019-06-08T17:40:00.511Z,53
2019-06-08T17:45:01.584Z,53
2019-06-08T17:50:00.966Z,53
2019-06-08T17:55:02.199Z,52.5
2019-06-08T18:00:01.010Z,52.5
2019-06-08T18:05:02.136Z,53
2019-06-08T18:10:00.939Z,52.5
2019-06-08T18:15:02.020Z,53
2019-06-08T18:20:01.123Z,51.9
2019-06-08T18:25:02.443Z,50.8
2019-06-08T18:30:07.983Z,52.5
2019-06-08T18:35:00.857Z,51.4
2019-06-08T18:40:01.658Z,51.9
2019-06-08T18:45:00.849Z,51.9
2019-06-08T18:50:01.820Z,50.8
2019-06-08T18:55:01.041Z,51.9
2019-06-08T19:00:08.291Z,50.8
2019-06-08T19:05:01.143Z,51.4
2019-06-08T19:10:00.522Z,51.4
2019-06-08T19:15:01.172Z,51.4
2019-06-08T19:20:02.462Z,49.8
2019-06-08T19:25:01.329Z,51.4
2019-06-08T19:30:00.683Z,51.9
2019-06-08T19:35:01.729Z,51.9
2019-06-08T19:40:01.116Z,51.9
2019-06-08T19:45:05.389Z,53
2019-06-08T19:50:01.089Z,51.9
2019-06-08T19:55:02.396Z,50.8
2019-06-08T20:00:01.347Z,51.9
2019-06-08T20:05:02.598Z,50.8
2019-06-08T20:10:01.649Z,51.4
2019-06-08T20:15:00.952Z,51.9
2019-06-08T20:20:02.220Z,50.8
2019-06-08T20:25:01.328Z,50.8
2019-06-08T20:30:08.050Z,51.9
2019-06-08T20:35:01.602Z,51.4
2019-06-08T20:40:09.953Z,50.8
2019-06-08T20:45:02.042Z,50.8
2019-06-08T20:50:00.853Z,50.8
2019-06-08T20:55:01.991Z,50.8
2019-06-08T21:00:08.139Z,50.8
2019-06-08T21:05:02.436Z,49.8
2019-06-08T21:10:01.489Z,49.8
2019-06-08T21:15:00.763Z,50.8
2019-06-08T21:20:01.910Z,50.8
2019-06-08T21:25:00.844Z,50.8
2019-06-08T21:30:08.578Z,49.8
2019-06-08T21:35:00.766Z,49.2
2019-06-08T21:40:04.020Z,50.8
2019-06-08T21:45:01.840Z,49.8
2019-06-08T21:50:02.237Z,49.2
2019-06-08T21:55:01.039Z,49.8
2019-06-08T22:00:19.170Z,49.8
2019-06-08T22:05:03.222Z,49.8
2019-06-08T22:10:02.870Z,49.2
2019-06-08T22:15:01.103Z,49.8
2019-06-08T22:20:03.314Z,48.7
2019-06-08T22:25:01.387Z,49.8
2019-06-08T22:30:09.487Z,47.1
2019-06-08T22:35:01.775Z,49.8
2019-06-08T22:40:01.769Z,49.2
2019-06-08T22:45:02.521Z,49.2
2019-06-08T22:50:02.453Z,49.2
2019-06-08T22:55:04.910Z,48.7
2019-06-08T23:00:12.266Z,48.7
2019-06-08T23:05:02.910Z,49.2
2019-06-08T23:10:04.132Z,49.8
2019-06-08T23:15:02.231Z,48.7
2019-06-08T23:20:02.122Z,48.7
2019-06-08T23:25:02.939Z,47.6
2019-06-08T23:30:03.764Z,47.6
2019-06-08T23:35:01.100Z,48.7
2019-06-08T23:40:02.540Z,48.7
2019-06-08T23:45:02.269Z,48.7
2019-06-08T23:50:01.928Z,48.7
2019-06-08T23:55:02.550Z,47.6
